createdAt,value
2018-09-25T00:00:01.199Z,1.92
2018-09-25T00:02:35.094Z,2.25
2018-09-25T00:05:09.081Z,1.57
2018-09-25T00:07:42.751Z,2.20
2018-09-25T00:10:16.774Z,1.80
2018-09-25T00:12:50.412Z,1.95
2018-09-25T00:15:24.309Z,1.87
2018-09-25T00:17:57.983Z,1.95
2018-09-25T00:20:31.684Z,1.60
2018-09-25T00:23:05.302Z,2.20
2018-09-25T00:25:39.210Z,1.87
2018-09-25T00:28:12.897Z,2.22
2018-09-25T00:30:46.771Z,1.50
2018-09-25T00:33:20.613Z,1.80
2018-09-25T00:35:54.539Z,2.30
2018-09-25T00:38:28.364Z,2.00
2018-09-25T00:41:02.234Z,1.75
2018-09-25T00:43:35.945Z,1.62
2018-09-25T00:46:09.809Z,1.52
2018-09-25T00:48:43.563Z,1.95
2018-09-25T00:51:17.227Z,1.87
2018-09-25T00:53:50.886Z,2.00
2018-09-25T00:56:24.691Z,1.57
2018-09-25T00:58:58.488Z,1.47
2018-09-25T01:01:32.243Z,1.50
2018-09-25T01:04:06.105Z,2.55
2018-09-25T01:06:39.887Z,2.40
2018-09-25T01:09:14.095Z,2.10
2018-09-25T01:11:47.825Z,1.70
2018-09-25T01:14:21.565Z,1.90
2018-09-25T01:16:55.230Z,1.65
2018-09-25T01:19:28.918Z,1.98
2018-09-25T01:22:02.520Z,1.77
2018-09-25T01:24:36.223Z,1.50
2018-09-25T01:27:09.903Z,1.50
2018-09-25T01:29:43.575Z,1.77
2018-09-25T01:32:17.316Z,1.70
2018-09-25T01:34:51.128Z,1.80
2018-09-25T01:37:24.845Z,2.00
2018-09-25T01:39:58.524Z,2.02
2018-09-25T01:42:32.232Z,1.87
2018-09-25T01:45:06.021Z,1.65
2018-09-25T01:47:39.623Z,2.00
2018-09-25T01:50:13.532Z,1.85
2018-09-25T01:52:47.335Z,1.45
2018-09-25T01:55:21.114Z,1.70
2018-09-25T01:57:55.020Z,1.67
2018-09-25T02:00:28.824Z,1.85
2018-09-25T02:03:02.647Z,2.20
2018-09-25T02:05:36.547Z,1.80
2018-09-25T02:08:10.768Z,1.72
2018-09-25T02:10:44.510Z,1.60
2018-09-25T02:13:18.215Z,2.08
2018-09-25T02:15:51.888Z,1.85
2018-09-25T02:18:25.705Z,1.45
2018-09-25T02:20:59.493Z,1.90
2018-09-25T02:23:33.217Z,1.67
2018-09-25T02:26:07.091Z,1.62
2018-09-25T02:28:40.768Z,2.00
2018-09-25T02:31:14.576Z,1.60
2018-09-25T02:33:48.352Z,1.55
2018-09-25T02:36:22.026Z,1.85
2018-09-25T02:38:55.876Z,1.85
2018-09-25T02:41:29.514Z,1.90
2018-09-25T02:44:03.282Z,2.05
2018-09-25T02:46:37.004Z,2.62
2018-09-25T02:49:10.880Z,1.40
2018-09-25T02:51:44.739Z,1.90
2018-09-25T02:54:18.520Z,2.05
2018-09-25T02:56:52.219Z,1.80
2018-09-25T02:59:25.908Z,1.62
2018-09-25T03:01:59.948Z,1.75
2018-09-25T03:04:33.771Z,1.70
2018-09-25T03:07:07.465Z,1.72
2018-09-25T03:09:41.199Z,1.82
2018-09-25T03:12:14.969Z,1.70
2018-09-25T03:14:48.824Z,2.30
2018-09-25T03:17:22.420Z,1.70
2018-09-25T03:19:56.312Z,2.08
2018-09-25T03:22:30.218Z,1.80
2018-09-25T03:25:04.091Z,2.10
2018-09-25T03:27:37.824Z,2.27
2018-09-25T03:30:12.252Z,1.90
2018-09-25T03:32:45.927Z,2.00
2018-09-25T03:35:19.777Z,1.72
2018-09-25T03:37:53.543Z,2.00
2018-09-25T03:40:27.381Z,1.70
2018-09-25T03:43:01.031Z,2.25
2018-09-25T03:45:34.875Z,2.15
2018-09-25T03:48:08.856Z,2.40
2018-09-25T03:50:42.695Z,2.35
2018-09-25T03:53:16.432Z,2.10
2018-09-25T03:55:50.135Z,1.77
2018-09-25T03:58:23.997Z,1.75
2018-09-25T04:00:57.936Z,2.40
2018-09-25T04:03:31.729Z,2.02
2018-09-25T04:06:05.463Z,2.30
2018-09-25T04:08:39.147Z,2.30
2018-09-25T04:11:12.803Z,2.50
2018-09-25T04:13:46.645Z,2.12
2018-09-25T04:16:20.658Z,1.87
2018-09-25T04:18:54.533Z,1.80
2018-09-25T04:21:28.319Z,2.37
2018-09-25T04:24:01.989Z,2.65
2018-09-25T04:26:35.739Z,2.77
2018-09-25T04:29:09.566Z,2.22
2018-09-25T04:31:43.546Z,2.60
2018-09-25T04:34:17.508Z,1.98
2018-09-25T04:36:51.213Z,2.20
2018-09-25T04:39:24.905Z,2.35
2018-09-25T04:41:58.571Z,2.62
2018-09-25T04:44:32.428Z,2.85
2018-09-25T04:47:06.544Z,2.37
2018-09-25T04:49:40.196Z,2.85
2018-09-25T04:52:14.042Z,2.52
2018-09-25T04:54:48.012Z,2.30
2018-09-25T04:57:21.944Z,2.70
2018-09-25T04:59:55.673Z,2.52
2018-09-25T05:02:29.498Z,2.58
2018-09-25T05:05:03.355Z,3.08
2018-09-25T05:07:37.108Z,2.37
2018-09-25T05:10:10.907Z,2.85
2018-09-25T05:12:44.767Z,3.10
2018-09-25T05:15:18.631Z,2.95
2018-09-25T05:17:53.856Z,2.67
2018-09-25T05:20:27.656Z,2.58
2018-09-25T05:23:01.477Z,2.87
2018-09-25T05:25:35.317Z,2.80
2018-09-25T05:28:09.284Z,2.40
2018-09-25T05:30:43.032Z,2.90
2018-09-25T05:33:16.715Z,2.85
2018-09-25T05:35:50.499Z,3.10
2018-09-25T05:38:25.206Z,2.62
2018-09-25T05:40:58.958Z,3.10
2018-09-25T05:43:32.846Z,2.80
2018-09-25T05:46:06.617Z,2.90
2018-09-25T05:48:40.520Z,3.27
2018-09-25T05:51:14.396Z,3.42
2018-09-25T05:53:48.128Z,4.45
2018-09-25T05:56:21.946Z,3.55
2018-09-25T05:58:55.772Z,3.35
2018-09-25T06:01:29.588Z,3.30
2018-09-25T06:04:03.427Z,4.10
2018-09-25T06:06:37.307Z,3.40
2018-09-25T06:09:13.152Z,3.60
2018-09-25T06:11:47.211Z,2.77
2018-09-25T06:14:21.004Z,3.65
2018-09-25T06:16:54.899Z,3.85
2018-09-25T06:19:28.704Z,4.08
2018-09-25T06:22:02.474Z,3.50
2018-09-25T06:24:36.215Z,3.20
2018-09-25T06:27:10.161Z,3.95
2018-09-25T06:29:43.948Z,4.35
2018-09-25T06:32:17.816Z,3.70
2018-09-25T06:34:51.766Z,3.22
2018-09-25T06:37:26.040Z,3.45
2018-09-25T06:39:59.729Z,4.12
2018-09-25T06:42:33.647Z,4.40
2018-09-25T06:45:07.453Z,5.35
2018-09-25T06:47:41.148Z,4.92
2018-09-25T06:50:15.082Z,5.00
2018-09-25T06:52:48.982Z,5.15
2018-09-25T06:55:22.845Z,6.10
2018-09-25T06:57:56.643Z,5.22
2018-09-25T07:00:30.609Z,5.50
2018-09-25T07:03:04.606Z,7.40
2018-09-25T07:05:38.558Z,7.62
2018-09-25T07:08:12.543Z,7.72
2018-09-25T07:10:46.265Z,8.30
2018-09-25T07:13:20.003Z,8.08
2018-09-25T07:15:53.782Z,7.70
2018-09-25T07:18:27.558Z,9.93
2018-09-25T07:21:01.298Z,7.60
2018-09-25T07:23:35.019Z,6.50
2018-09-25T07:26:08.784Z,9.20
2018-09-25T07:28:42.532Z,7.67
2018-09-25T07:31:16.383Z,6.25
2018-09-25T07:33:50.270Z,6.90
2018-09-25T07:36:24.056Z,7.03
2018-09-25T07:38:57.781Z,7.00
2018-09-25T07:41:31.559Z,7.00
2018-09-25T07:44:05.590Z,6.83
2018-09-25T07:46:39.319Z,6.65
2018-09-25T07:49:13.143Z,6.25
2018-09-25T07:51:46.944Z,6.20
2018-09-25T07:54:20.661Z,6.00
2018-09-25T07:56:54.756Z,5.25
2018-09-25T07:59:28.670Z,4.83
2018-09-25T08:02:02.518Z,5.60
2018-09-25T08:04:36.467Z,4.15
2018-09-25T08:07:10.609Z,4.62
2018-09-25T08:09:44.410Z,5.00
2018-09-25T08:12:18.160Z,4.10
2018-09-25T08:14:51.977Z,4.33
2018-09-25T08:17:25.848Z,3.75
2018-09-25T08:19:59.572Z,3.60
2018-09-25T08:22:34.011Z,3.35
2018-09-25T08:25:07.892Z,4.00
2018-09-25T08:27:41.667Z,3.37
2018-09-25T08:30:15.536Z,3.17
2018-09-25T08:32:49.339Z,3.05
2018-09-25T08:35:23.024Z,1.90
2018-09-25T08:37:56.768Z,2.60
2018-09-25T08:40:30.418Z,2.87
2018-09-25T08:43:04.256Z,2.40
2018-09-25T08:45:38.114Z,3.10
2018-09-25T08:48:11.821Z,2.42
2018-09-25T08:50:45.555Z,4.00
2018-09-25T08:53:19.192Z,2.10
2018-09-25T08:55:52.896Z,1.80
2018-09-25T08:58:26.488Z,2.02
2018-09-25T09:01:00.408Z,1.95
2018-09-25T09:03:35.060Z,1.62
2018-09-25T09:06:08.810Z,2.20
2018-09-25T09:08:42.548Z,2.33
2018-09-25T09:11:16.191Z,2.15
2018-09-25T09:13:49.967Z,1.75
2018-09-25T09:16:23.754Z,2.05
2018-09-25T09:18:57.430Z,1.85
2018-09-25T09:21:31.096Z,1.60
2018-09-25T09:24:04.920Z,2.70
2018-09-25T09:26:38.619Z,1.90
2018-09-25T09:29:12.436Z,1.77
2018-09-25T09:31:46.270Z,2.10
2018-09-25T09:34:20.220Z,1.90
2018-09-25T09:36:53.797Z,1.90
2018-09-25T09:39:27.723Z,1.22
2018-09-25T09:42:01.731Z,1.40
2018-09-25T09:44:35.231Z,1.55
2018-09-25T09:47:09.195Z,1.57
2018-09-25T09:49:42.905Z,1.75
2018-09-25T09:52:16.865Z,1.92
2018-09-25T09:54:50.573Z,1.92
2018-09-25T09:57:24.292Z,1.60
2018-09-25T09:59:58.039Z,1.30
2018-09-25T10:02:31.770Z,1.37
2018-09-25T10:05:05.369Z,2.80
2018-09-25T10:07:39.073Z,2.05
2018-09-25T10:10:12.993Z,1.65
2018-09-25T10:12:46.689Z,1.30
2018-09-25T10:15:20.420Z,1.80
2018-09-25T10:17:54.186Z,1.20
2018-09-25T10:20:27.951Z,1.45
2018-09-25T10:23:01.611Z,1.05
2018-09-25T10:25:35.481Z,1.20
2018-09-25T10:28:09.466Z,2.20
2018-09-25T10:30:43.278Z,1.40
2018-09-25T10:33:17.183Z,1.32
2018-09-25T10:35:50.807Z,0.85
2018-09-25T10:38:24.557Z,1.98
2018-09-25T10:40:58.328Z,1.70
2018-09-25T10:43:32.099Z,0.90
2018-09-25T10:46:05.803Z,1.07
2018-09-25T10:48:39.770Z,1.35
2018-09-25T10:51:13.585Z,1.00
2018-09-25T10:53:47.231Z,1.25
2018-09-25T10:56:20.971Z,1.35
2018-09-25T10:58:54.698Z,1.20
2018-09-25T11:01:28.684Z,1.30
2018-09-25T11:04:02.361Z,1.35
2018-09-25T11:06:36.159Z,1.20
2018-09-25T11:09:13.555Z,1.67
2018-09-25T11:11:48.083Z,1.17
2018-09-25T11:14:21.845Z,0.82
2018-09-25T11:16:55.712Z,1.00
2018-09-25T11:19:29.484Z,1.32
2018-09-25T11:22:03.280Z,1.35
2018-09-25T11:24:37.047Z,1.47
2018-09-25T11:27:10.795Z,1.35
2018-09-25T11:29:44.651Z,1.25
2018-09-25T11:32:18.471Z,1.20
2018-09-25T11:34:52.460Z,0.90
2018-09-25T11:37:26.313Z,1.30
2018-09-25T11:40:00.023Z,1.00
2018-09-25T11:42:33.884Z,1.27
2018-09-25T11:45:07.748Z,1.00
2018-09-25T11:47:41.616Z,0.90
2018-09-25T11:50:15.390Z,1.30
2018-09-25T11:52:49.270Z,1.52
2018-09-25T11:55:22.981Z,0.95
2018-09-25T11:57:56.643Z,0.78
2018-09-25T12:00:30.432Z,0.80
2018-09-25T12:03:04.196Z,0.60
2018-09-25T12:05:37.864Z,0.80
2018-09-25T12:08:11.728Z,1.05
2018-09-25T12:10:45.459Z,1.02
2018-09-25T12:13:19.382Z,1.07
2018-09-25T12:15:52.998Z,0.50
2018-09-25T12:18:26.870Z,0.82
2018-09-25T12:21:00.515Z,0.55
2018-09-25T12:23:34.337Z,1.00
2018-09-25T12:26:08.184Z,1.10
2018-09-25T12:28:41.896Z,1.20
2018-09-25T12:31:15.489Z,0.85
2018-09-25T12:33:49.232Z,1.00
2018-09-25T12:36:22.950Z,1.42
2018-09-25T12:38:56.670Z,1.40
2018-09-25T12:41:30.424Z,0.70
2018-09-25T12:44:04.301Z,2.85
2018-09-25T12:46:38.108Z,1.00
2018-09-25T12:49:12.801Z,0.88
2018-09-25T12:51:46.511Z,1.75
2018-09-25T12:54:20.216Z,0.90
2018-09-25T12:56:54.056Z,1.20
2018-09-25T12:59:27.860Z,0.70
2018-09-25T13:02:01.496Z,1.50
2018-09-25T13:04:35.267Z,1.00
2018-09-25T13:07:09.068Z,0.80
2018-09-25T13:09:43.029Z,0.72
2018-09-25T13:12:16.830Z,1.20
2018-09-25T13:14:50.573Z,1.52
2018-09-25T13:17:24.415Z,1.20
2018-09-25T13:19:58.126Z,1.22
2018-09-25T13:22:31.813Z,1.77
2018-09-25T13:25:05.758Z,1.00
2018-09-25T13:27:39.740Z,1.17
2018-09-25T13:30:13.575Z,1.50
2018-09-25T13:32:47.444Z,1.25
2018-09-25T13:35:21.291Z,0.82
2018-09-25T13:37:55.051Z,1.20
2018-09-25T13:40:28.864Z,1.05
2018-09-25T13:43:02.527Z,0.90
2018-09-25T13:45:36.279Z,1.00
2018-09-25T13:48:09.954Z,0.60
2018-09-25T13:50:43.747Z,1.20
2018-09-25T13:53:17.399Z,1.20
2018-09-25T13:55:51.213Z,1.30
2018-09-25T13:58:24.871Z,1.20
2018-09-25T14:00:58.624Z,0.93
2018-09-25T14:03:32.462Z,0.90
2018-09-25T14:06:06.331Z,1.00
2018-09-25T14:08:39.926Z,1.00
2018-09-25T14:11:13.768Z,1.45
2018-09-25T14:13:47.582Z,1.37
2018-09-25T14:16:21.388Z,0.90
2018-09-25T14:18:55.138Z,1.10
2018-09-25T14:21:28.813Z,1.05
2018-09-25T14:24:02.610Z,1.02
2018-09-25T14:26:36.528Z,1.10
2018-09-25T14:29:10.403Z,1.00
2018-09-25T14:31:44.180Z,1.42
2018-09-25T14:34:17.904Z,1.10
2018-09-25T14:36:51.664Z,0.98
2018-09-25T14:39:25.603Z,1.12
2018-09-25T14:41:59.317Z,1.10
2018-09-25T14:44:33.211Z,1.45
2018-09-25T14:47:07.018Z,1.00
2018-09-25T14:49:40.801Z,1.00
2018-09-25T14:52:14.611Z,1.23
2018-09-25T14:54:48.260Z,1.20
2018-09-25T14:57:22.024Z,1.27
2018-09-25T14:59:55.623Z,1.13
2018-09-25T15:02:29.451Z,0.90
2018-09-25T15:05:03.241Z,2.13
2018-09-25T15:07:36.951Z,1.40
2018-09-25T15:10:10.805Z,1.17
2018-09-25T15:12:44.499Z,0.97
2018-09-25T15:15:18.298Z,1.00
2018-09-25T15:17:51.984Z,1.07
2018-09-25T15:20:25.695Z,1.37
2018-09-25T15:22:59.462Z,1.63
2018-09-25T15:25:33.237Z,0.93
2018-09-25T15:28:07.306Z,1.40
2018-09-25T15:30:41.062Z,1.20
2018-09-25T15:33:14.796Z,1.07
2018-09-25T15:35:48.597Z,1.10
2018-09-25T15:38:22.433Z,1.00
2018-09-25T15:40:56.207Z,4.00
2018-09-25T15:43:30.038Z,1.20
2018-09-25T15:46:03.660Z,0.90
2018-09-25T15:48:37.551Z,0.93
2018-09-25T15:51:11.580Z,1.00
2018-09-25T15:53:45.506Z,1.00
2018-09-25T15:56:19.259Z,0.93
2018-09-25T15:58:53.113Z,2.17
2018-09-25T16:01:26.904Z,1.10
2018-09-25T16:04:00.668Z,0.80
2018-09-25T16:06:34.515Z,0.95
2018-09-25T16:09:08.407Z,1.50
2018-09-25T16:11:42.305Z,1.05
2018-09-25T16:14:16.165Z,1.50
2018-09-25T16:16:49.883Z,1.22
2018-09-25T16:19:23.714Z,1.65
2018-09-25T16:21:57.712Z,1.37
2018-09-25T16:24:31.379Z,1.10
2018-09-25T16:27:05.200Z,1.42
2018-09-25T16:29:39.191Z,1.17
2018-09-25T16:32:12.987Z,1.22
2018-09-25T16:34:46.811Z,1.22
2018-09-25T16:37:20.621Z,1.22
2018-09-25T16:39:54.426Z,1.40
2018-09-25T16:42:28.285Z,1.00
2018-09-25T16:45:02.137Z,1.20
2018-09-25T16:47:35.870Z,1.57
2018-09-25T16:50:09.796Z,1.30
2018-09-25T16:52:43.663Z,1.30
2018-09-25T16:55:17.464Z,1.22
2018-09-25T16:57:51.286Z,1.07
2018-09-25T17:00:25.064Z,1.15
2018-09-25T17:02:58.932Z,1.30
2018-09-25T17:05:32.919Z,1.30
2018-09-25T17:08:06.869Z,1.20
2018-09-25T17:10:40.794Z,1.25
2018-09-25T17:13:14.646Z,2.55
2018-09-25T17:15:48.332Z,1.37
2018-09-25T17:18:22.172Z,1.42
2018-09-25T17:20:56.013Z,1.15
2018-09-25T17:23:29.762Z,1.70
2018-09-25T17:26:03.562Z,1.27
2018-09-25T17:28:37.466Z,1.10
2018-09-25T17:31:11.279Z,1.50
2018-09-25T17:33:45.089Z,1.60
2018-09-25T17:36:18.969Z,1.27
2018-09-25T17:38:52.752Z,1.10
2018-09-25T17:41:33.367Z,1.30
2018-09-25T17:44:07.052Z,1.30
2018-09-25T17:46:41.137Z,1.40
2018-09-25T17:49:14.937Z,1.50
2018-09-25T17:51:48.789Z,1.82
2018-09-25T17:54:23.326Z,1.52
2018-09-25T17:56:57.060Z,1.50
2018-09-25T17:59:30.784Z,2.17
2018-09-25T18:02:04.496Z,1.85
2018-09-25T18:04:38.397Z,1.77
2018-09-25T18:07:12.210Z,1.35
2018-09-25T18:09:46.031Z,1.82
2018-09-25T18:12:19.985Z,1.85
2018-09-25T18:14:53.861Z,1.62
2018-09-25T18:17:27.756Z,1.30
2018-09-25T18:20:01.427Z,1.60
2018-09-25T18:22:35.720Z,1.90
2018-09-25T18:25:09.578Z,1.85
2018-09-25T18:27:43.549Z,1.30
2018-09-25T18:30:17.242Z,1.60
2018-09-25T18:32:50.981Z,1.80
2018-09-25T18:35:24.857Z,1.80
2018-09-25T18:37:58.737Z,2.00
2018-09-25T18:40:32.727Z,2.02
2018-09-25T18:43:06.678Z,2.30
2018-09-25T18:45:40.693Z,2.10
2018-09-25T18:48:14.548Z,2.37
2018-09-25T18:50:48.360Z,1.87
2018-09-25T18:53:22.523Z,2.37
2018-09-25T18:55:56.422Z,2.10
2018-09-25T18:58:30.294Z,1.90
2018-09-25T19:01:48.052Z,1.80
2018-09-25T19:04:22.100Z,2.50
2018-09-25T19:06:55.880Z,2.40
2018-09-25T19:09:29.931Z,2.00
2018-09-25T19:12:06.704Z,1.87
2018-09-25T19:14:40.667Z,2.58
2018-09-25T19:17:14.489Z,2.33
2018-09-25T19:19:48.393Z,2.30
2018-09-25T19:22:22.246Z,2.75
2018-09-25T19:24:57.189Z,3.12
2018-09-25T19:27:31.200Z,2.72
2018-09-25T19:30:05.197Z,2.52
2018-09-25T19:32:39.072Z,2.72
2018-09-25T19:35:12.880Z,3.85
2018-09-25T19:37:46.889Z,2.17
2018-09-25T19:40:21.158Z,2.58
2018-09-25T19:42:55.057Z,2.47
2018-09-25T19:45:28.944Z,2.58
2018-09-25T19:48:02.819Z,3.10
2018-09-25T19:50:36.620Z,1.98
2018-09-25T19:53:10.697Z,1.70
2018-09-25T19:55:44.678Z,1.70
2018-09-25T19:58:18.633Z,2.60
2018-09-25T20:00:52.574Z,2.60
2018-09-25T20:03:26.714Z,2.52
2018-09-25T20:06:00.701Z,2.40
2018-09-25T20:08:34.677Z,2.02
2018-09-25T20:11:08.513Z,2.30
2018-09-25T20:13:42.285Z,2.10
2018-09-25T20:16:16.368Z,2.00
2018-09-25T20:18:50.262Z,1.90
2018-09-25T20:21:24.231Z,1.90
2018-09-25T20:23:58.049Z,2.02
2018-09-25T20:26:31.847Z,1.85
2018-09-25T20:29:05.847Z,2.12
2018-09-25T20:31:39.733Z,2.27
2018-09-25T20:34:13.830Z,2.87
2018-09-25T20:36:47.704Z,3.20
2018-09-25T20:39:21.566Z,3.72
2018-09-25T20:41:55.409Z,3.02
2018-09-25T20:44:30.247Z,3.55
2018-09-25T20:47:03.990Z,3.87
2018-09-25T20:49:37.705Z,3.77
2018-09-25T20:52:11.689Z,3.10
2018-09-25T20:54:45.400Z,3.62
2018-09-25T20:57:19.410Z,3.80
2018-09-25T20:59:53.107Z,2.50
2018-09-25T21:02:27.093Z,3.20
2018-09-25T21:05:00.808Z,2.42
2018-09-25T21:07:41.653Z,2.37
2018-09-25T21:10:15.637Z,2.70
2018-09-25T21:12:49.382Z,2.70
2018-09-25T21:15:23.376Z,1.82
2018-09-25T21:17:57.230Z,2.20
2018-09-25T21:20:31.148Z,1.90
2018-09-25T21:23:05.023Z,2.17
2018-09-25T21:25:39.105Z,2.62
2018-09-25T21:28:13.098Z,2.25
2018-09-25T21:30:47.028Z,2.75
2018-09-25T21:33:20.921Z,2.15
2018-09-25T21:35:54.791Z,2.20
2018-09-25T21:38:28.686Z,1.95
2018-09-25T21:41:02.689Z,1.98
2018-09-25T21:43:36.624Z,2.08
2018-09-25T21:46:10.445Z,2.30
2018-09-25T21:48:44.463Z,2.15
2018-09-25T21:51:18.399Z,2.58
2018-09-25T21:53:52.100Z,1.80
2018-09-25T21:56:26.017Z,2.20
2018-09-25T21:58:59.849Z,2.25
2018-09-25T22:01:33.778Z,2.10
2018-09-25T22:04:07.556Z,2.37
2018-09-25T22:06:41.431Z,2.72
2018-09-25T22:09:16.824Z,2.20
2018-09-25T22:11:50.769Z,2.30
2018-09-25T22:14:24.599Z,2.80
2018-09-25T22:16:58.438Z,2.50
2018-09-25T22:19:32.236Z,2.55
2018-09-25T22:22:06.077Z,2.05
2018-09-25T22:24:39.959Z,1.95
2018-09-25T22:27:13.979Z,2.55
2018-09-25T22:29:47.777Z,2.20
2018-09-25T22:32:21.663Z,1.80
2018-09-25T22:34:55.529Z,1.55
2018-09-25T22:37:29.299Z,2.08
2018-09-25T22:40:03.029Z,2.08
2018-09-25T22:42:36.725Z,1.87
2018-09-25T22:45:10.646Z,2.10
2018-09-25T22:47:44.459Z,2.62
2018-09-25T22:50:18.335Z,2.52
2018-09-25T22:52:52.303Z,2.00
2018-09-25T22:55:26.203Z,2.58
2018-09-25T22:58:00.101Z,2.20
2018-09-25T23:00:33.770Z,1.92
2018-09-25T23:03:07.604Z,2.10
2018-09-25T23:05:42.171Z,2.20
2018-09-25T23:08:15.931Z,1.60
2018-09-25T23:10:49.843Z,1.95
2018-09-25T23:13:23.828Z,1.85
2018-09-25T23:15:57.589Z,2.05
2018-09-25T23:18:31.424Z,2.00
2018-09-25T23:21:05.290Z,1.90
2018-09-25T23:23:39.072Z,2.22
2018-09-25T23:26:12.928Z,1.90
2018-09-25T23:28:46.700Z,2.00
2018-09-25T23:31:20.541Z,1.92
2018-09-25T23:33:54.295Z,1.50
2018-09-25T23:36:28.074Z,1.98
2018-09-25T23:38:59.001Z,2.35
2018-09-25T23:41:31.744Z,1.80
2018-09-25T23:44:20.098Z,1.90
2018-09-25T23:46:55.716Z,1.50
2018-09-25T23:49:31.823Z,1.92
2018-09-25T23:52:09.735Z,1.70
2018-09-25T23:56:45.317Z,1.95
2018-09-25T23:59:24.242Z,1.67
